Time;durP1;ratioP1;P1;durP2;ratioP2;P2;SDS_P1;SDS_P2;PMS_P1;PMS_P2;Temp;Humidity;BMP_temperature;BMP_pressure;BME280_temperature;BME280_humidity;BME280_pressure;Samples;Min_cycle;Max_cycle;Signal;HPM_P1;HPM_P2
2021/10/25 00:01:51;;;;;;;;;30.75;29.25;;;;;12.78;61.06;101259.28;5074783;28;45599;-82
2021/10/25 00:04:17;;;;;;;;;36.50;32.75;;;;;12.66;61.10;101244.34;5074263;28;45773;-81
2021/10/25 00:06:43;;;;;;;;;36.75;32.00;;;;;12.69;61.14;101244.13;5055987;28;45817;-82
2021/10/25 00:09:08;;;;;;;;;35.75;31.25;;;;;12.41;61.15;101195.28;5039656;28;46238;-80
2021/10/25 00:11:34;;;;;;;;;34.25;30.50;;;;;12.73;60.73;101243.00;5074372;28;46041;-82
2021/10/25 00:17:21;;;;;;;;;39.00;33.75;;;;;12.69;61.04;101254.66;5074039;28;45602;-81
2021/10/25 00:19:47;;;;;;;;;34.25;32.50;;;;;12.66;61.16;101248.78;5074351;28;45663;-82
2021/10/25 00:22:13;;;;;;;;;27.25;26.25;;;;;12.65;61.08;101247.94;5074282;28;45830;-81
2021/10/25 00:24:38;;;;;;;;;35.00;31.25;;;;;12.59;61.02;101243.09;5074278;28;45807;-81
2021/10/25 00:27:04;;;;;;;;;31.75;30.00;;;;;12.47;61.08;101218.50;5055785;28;47702;-82
2021/10/25 00:29:29;;;;;;;;;35.50;30.00;;;;;12.48;61.20;101221.97;5074392;28;45554;-82
2021/10/25 00:31:55;;;;;;;;;36.25;32.00;;;;;12.58;61.52;101237.00;5074183;28;45640;-81
2021/10/25 00:34:20;;;;;;;;;40.50;34.50;;;;;12.46;61.11;101218.63;5055864;28;45779;-82
2021/10/25 00:36:46;;;;;;;;;36.75;28.50;;;;;12.48;61.43;101225.44;5073858;28;45698;-82
2021/10/25 00:39:11;;;;;;;;;32.50;31.75;;;;;12.52;61.18;101228.72;5074076;28;45591;-81
2021/10/25 00:41:37;;;;;;;;;36.75;32.25;;;;;12.39;61.23;101214.72;5073925;28;45617;-81
2021/10/25 00:47:24;;;;;;;;;28.50;27.00;;;;;12.34;61.32;101207.16;5072235;28;46020;-81
2021/10/25 00:49:49;;;;;;;;;30.75;28.75;;;;;12.40;61.21;101224.28;5073977;28;45983;-82
2021/10/25 00:52:15;;;;;;;;;28.50;25.00;;;;;12.41;61.52;101226.81;5051920;28;45606;-82
2021/10/25 00:54:41;;;;;;;;;29.75;27.25;;;;;12.37;61.37;101216.59;5072098;28;45713;-80
2021/10/25 00:57:07;;;;;;;;;27.25;25.75;;;;;12.26;61.21;101201.56;5073665;28;46396;-81
2021/10/25 01:02:54;;;;;;;;;30.50;26.75;;;;;12.35;61.39;101229.88;5073807;28;45529;-81
2021/10/25 01:05:23;;;;;;;;;30.25;26.25;;;;;12.27;61.57;101215.56;5073789;28;45870;-81
2021/10/25 01:07:50;;;;;;;;;29.25;26.50;;;;;12.19;61.23;101209.06;5073701;28;46819;-81
2021/10/25 01:10:16;;;;;;;;;31.25;28.25;;;;;12.19;61.41;101206.44;5072215;28;47200;-80
2021/10/25 01:12:43;;;;;;;;;27.00;24.75;;;;;12.27;61.36;101218.19;5078295;28;45671;-81
2021/10/25 01:15:09;;;;;;;;;25.25;23.75;;;;;12.23;61.23;101212.31;5082145;28;45646;-82
2021/10/25 01:17:35;;;;;;;;;26.50;24.50;;;;;12.31;61.45;101227.56;5066777;28;46459;-81
2021/10/25 01:20:02;;;;;;;;;25.25;22.00;;;;;12.28;61.36;101223.34;5084690;28;46282;-81
2021/10/25 01:22:27;;;;;;;;;26.75;24.50;;;;;12.23;61.55;101219.34;5083681;28;45688;-80
2021/10/25 01:24:54;;;;;;;;;20.50;20.25;;;;;12.30;61.26;101229.34;5078867;28;45735;-80
2021/10/25 01:33:29;;;;;;;;;26.00;25.50;;;;;12.36;61.37;101238.59;5076613;28;45905;-81
2021/10/25 01:35:55;;;;;;;;;24.25;21.75;;;;;12.37;61.12;101243.72;5077112;28;45612;-81
2021/10/25 01:38:20;;;;;;;;;24.25;22.00;;;;;12.37;61.53;101233.22;5076499;28;46183;-81
2021/10/25 01:40:45;;;;;;;;;26.00;24.00;;;;;12.35;61.46;101232.50;5076559;28;45632;-80
2021/10/25 01:43:11;;;;;;;;;17.75;16.00;;;;;12.03;61.49;101174.28;5076699;28;45479;-79
2021/10/25 01:45:36;;;;;;;;;24.75;21.75;;;;;12.36;61.22;101233.34;5076645;28;45636;-81
2021/10/25 01:48:03;;;;;;;;;24.00;22.75;;;;;12.40;61.29;101226.91;5057754;28;46810;-80
2021/10/25 01:50:28;;;;;;;;;23.00;21.25;;;;;12.36;61.31;101222.84;5076512;28;45909;-81
2021/10/25 01:52:55;;;;;;;;;23.75;23.25;;;;;12.32;61.39;101216.94;5076452;28;45577;-81
2021/10/25 01:55:21;;;;;;;;;24.75;23.25;;;;;12.41;61.37;101232.09;5076277;28;45886;-81
2021/10/25 01:57:47;;;;;;;;;19.75;19.00;;;;;12.13;61.30;101183.22;5076328;28;46714;-81
2021/10/25 02:00:12;;;;;;;;;20.50;20.25;;;;;12.31;61.00;101212.59;5076030;28;46258;-81
2021/10/25 02:02:37;;;;;;;;;21.00;20.50;;;;;12.33;61.17;101215.13;5076269;28;45519;-82
2021/10/25 02:05:03;;;;;;;;;22.75;21.50;;;;;12.34;61.10;101209.78;5076420;28;45708;-80
2021/10/25 02:07:30;;;;;;;;;26.50;21.50;;;;;12.34;61.36;101207.16;5057522;28;47525;-79
2021/10/25 02:09:55;;;;;;;;;22.25;19.50;;;;;12.11;61.22;101164.06;5075986;28;46273;-80
2021/10/25 02:12:21;;;;;;;;;18.50;17.50;;;;;12.24;60.97;101190.34;5076097;28;45683;-82
2021/10/25 02:18:09;;;;;;;;;23.75;20.25;;;;;12.44;61.21;101202.09;5075597;28;45585;-82
2021/10/25 02:20:34;;;;;;;;;22.25;20.00;;;;;12.34;61.13;101196.66;5075988;28;45835;-80
2021/10/25 02:23:00;;;;;;;;;19.00;18.00;;;;;12.45;61.07;101217.78;5075926;28;45724;-80
2021/10/25 02:25:25;;;;;;;;;22.25;19.50;;;;;12.28;61.07;101173.44;5075945;28;45674;-81
2021/10/25 02:27:51;;;;;;;;;20.50;19.00;;;;;12.22;61.02;101168.59;5057085;28;48793;-82
2021/10/25 02:30:16;;;;;;;;;17.75;17.75;;;;;12.30;61.13;101183.84;5075501;28;46543;-82
2021/10/25 02:32:43;;;;;;;;;18.50;18.00;;;;;12.42;60.94;101210.09;5075851;28;45542;-81
2021/10/25 02:35:08;;;;;;;;;18.00;17.00;;;;;12.32;61.07;101187.19;5075839;28;45708;-81
2021/10/25 02:37:34;;;;;;;;;19.25;18.00;;;;;12.46;60.92;101208.94;5075512;28;45476;-81
2021/10/25 02:39:59;;;;;;;;;20.00;17.50;;;;;12.47;61.06;101200.09;5075652;28;45494;-82
2021/10/25 02:42:24;;;;;;;;;18.50;18.00;;;;;12.43;60.85;101195.16;5075598;28;45667;-81
2021/10/25 02:48:11;;;;;;;;;18.75;17.00;;;;;12.50;60.69;101192.00;5069870;28;45740;-82
2021/10/25 02:50:39;;;;;;;;;24.50;22.75;;;;;12.37;60.93;101164.91;5075523;28;45528;-81
2021/10/25 02:53:08;;;;;;;;;18.00;17.00;;;;;12.45;60.70;101175.72;5075594;28;45797;-81
2021/10/25 02:55:34;;;;;;;;;18.75;18.00;;;;;12.52;61.03;101190.09;5075493;28;45772;-81
2021/10/25 02:58:00;;;;;;;;;23.00;19.50;;;;;12.42;60.94;101161.94;5056805;28;46580;-82
2021/10/25 03:03:49;;;;;;;;;21.75;19.00;;;;;12.45;60.93;101154.69;5075305;28;45910;-82
2021/10/25 03:06:15;;;;;;;;;19.75;19.50;;;;;12.32;60.96;101132.00;5057168;28;45726;-81
2021/10/25 03:08:40;;;;;;;;;19.25;17.75;;;;;12.57;60.69;101174.88;5075055;28;45511;-81
2021/10/25 03:11:10;;;;;;;;;20.50;18.00;;;;;12.56;60.98;101175.81;5057309;28;47502;-82
2021/10/25 03:13:38;;;;;;;;;19.25;19.00;;;;;12.60;60.99;101177.28;5058314;28;45558;-81
2021/10/25 03:16:05;;;;;;;;;19.00;18.00;;;;;12.31;60.91;101132.97;5058250;28;45533;-81
2021/10/25 03:18:31;;;;;;;;;24.00;19.75;;;;;12.31;61.11;101133.78;5058604;28;47584;-81
2021/10/25 03:20:59;;;;;;;;;20.00;19.75;;;;;12.65;60.95;101195.34;5078305;28;45671;-81
2021/10/25 03:23:25;;;;;;;;;18.25;18.00;;;;;12.63;60.73;101189.38;5080128;28;45497;-82
2021/10/25 03:25:50;;;;;;;;;17.25;16.50;;;;;12.38;60.94;101135.06;5081097;28;45471;-81
2021/10/25 03:28:16;;;;;;;;;19.25;18.50;;;;;12.60;60.74;101172.03;5080699;28;46056;-81
2021/10/25 03:30:42;;;;;;;;;20.00;19.25;;;;;12.17;60.85;101095.34;5079345;28;45773;-81
2021/10/25 03:33:11;;;;;;;;;19.25;19.00;;;;;12.39;60.71;101133.25;5078504;28;45635;-81
2021/10/25 03:35:36;;;;;;;;;18.25;17.00;;;;;12.51;61.01;101148.19;5058731;28;45651;-82
2021/10/25 03:38:02;;;;;;;;;25.50;21.75;;;;;12.57;61.08;101158.25;5072965;28;46713;-81
2021/10/25 03:40:30;;;;;;;;;13.00;12.00;;;;;12.66;60.86;101169.91;5074430;28;47018;-81
2021/10/25 03:42:57;;;;;;;;;17.75;16.50;;;;;12.71;61.04;101176.53;5074544;28;45537;-81
2021/10/25 03:49:00;;;;;;;;;17.00;15.75;;;;;12.69;61.60;101178.41;5073471;28;45752;-79
2021/10/25 03:51:25;;;;;;;;;19.25;17.25;;;;;12.71;61.50;101173.88;5074599;28;46299;-80
2021/10/25 03:53:58;;;;;;;;;20.25;19.25;;;;;12.72;61.25;101174.72;5074504;28;45826;-81
2021/10/25 04:04:16;;;;;;;;;22.00;20.75;;;;;12.75;61.46;101177.13;5074167;28;45609;-81
2021/10/25 04:28:28;;;;;;;;;14.50;13.50;;;;;12.67;62.61;101166.34;5074229;28;45522;-81
2021/10/25 04:30:56;;;;;;;;;15.00;12.75;;;;;12.68;62.40;101176.75;5074171;28;45730;-81
2021/10/25 04:33:22;;;;;;;;;14.00;13.50;;;;;12.63;62.48;101166.53;5074208;28;46238;-84
2021/10/25 04:35:47;;;;;;;;;15.25;13.25;;;;;12.56;62.59;101143.44;5074369;28;45609;-82
2021/10/25 04:38:13;;;;;;;;;15.75;14.00;;;;;12.69;62.93;101180.19;5074217;28;45540;-79
2021/10/25 04:40:39;;;;;;;;;12.75;12.00;;;;;12.59;63.06;101157.19;5074112;28;45655;-81
2021/10/25 04:43:04;;;;;;;;;14.00;13.00;;;;;12.66;63.12;101170.75;5074148;28;45711;-81
2021/10/25 04:45:29;;;;;;;;;16.75;14.50;;;;;12.66;63.14;101164.66;5073972;28;45577;-79
2021/10/25 04:47:55;;;;;;;;;13.50;13.25;;;;;12.64;63.10;101164.75;5074192;28;45708;-81
2021/10/25 04:50:22;;;;;;;;;17.75;17.00;;;;;12.64;63.32;101167.38;5076722;28;45860;-80
2021/10/25 04:52:48;;;;;;;;;16.25;14.25;;;;;12.47;63.50;101139.66;5077405;28;46133;-81
2021/10/25 04:55:14;;;;;;;;;16.50;14.75;;;;;12.63;63.82;101162.25;5077391;28;45597;-80
2021/10/25 04:57:39;;;;;;;;;16.50;13.00;;;;;12.49;63.71;101139.56;5077377;28;45530;-82
2021/10/25 05:00:06;;;;;;;;;14.00;13.00;;;;;12.63;64.20;101175.41;5077122;28;46331;-81
2021/10/25 05:02:33;;;;;;;;;14.00;13.00;;;;;12.52;64.00;101152.50;5077303;28;46062;-82
2021/10/25 05:04:59;;;;;;;;;13.25;11.75;;;;;12.53;63.95;101160.25;5075518;28;45941;-81
2021/10/25 05:07:24;;;;;;;;;13.75;12.75;;;;;12.56;64.27;101162.69;5077326;28;45585;-82
2021/10/25 05:09:49;;;;;;;;;15.50;14.25;;;;;12.47;64.46;101138.84;5076879;28;46578;-81
2021/10/25 05:12:15;;;;;;;;;14.00;12.00;;;;;12.57;64.36;101159.09;5077121;28;45648;-82
2021/10/25 05:14:44;;;;;;;;;12.00;11.50;;;;;12.57;64.22;101166.16;5077158;28;45756;-80
2021/10/25 05:17:09;;;;;;;;;13.50;12.50;;;;;12.48;64.46;101151.84;5077148;28;45736;-80
2021/10/25 05:19:35;;;;;;;;;12.00;12.00;;;;;12.48;64.86;101154.47;5076733;28;47304;-80
2021/10/25 05:22:00;;;;;;;;;15.00;13.25;;;;;12.29;65.01;101119.09;5058093;28;46764;-80
2021/10/25 05:24:26;;;;;;;;;12.75;12.50;;;;;12.43;64.77;101140.81;5058622;28;45541;-80
2021/10/25 05:26:51;;;;;;;;;17.00;15.00;;;;;12.50;64.84;101154.38;5077140;28;45643;-80
2021/10/25 05:29:17;;;;;;;;;14.00;12.50;;;;;12.35;65.02;101126.56;5076859;28;46599;-81
2021/10/25 05:31:43;;;;;;;;;14.25;14.25;;;;;12.46;64.96;101140.63;5082217;28;46148;-81
2021/10/25 05:34:09;;;;;;;;;13.00;12.50;;;;;12.49;65.35;101139.56;5084394;28;45641;-81
2021/10/25 05:36:35;;;;;;;;;15.50;12.75;;;;;12.42;65.68;101131.25;5084718;28;45826;-79
2021/10/25 05:39:01;;;;;;;;;16.00;13.25;;;;;12.46;65.17;101132.75;5084462;28;46843;-80
2021/10/25 05:41:29;;;;;;;;;12.00;11.50;;;;;12.46;65.21;101135.38;5084576;28;45597;-81
2021/10/25 05:43:54;;;;;;;;;16.50;13.75;;;;;12.39;65.55;101134.09;5078858;28;45924;-80
2021/10/25 05:49:41;;;;;;;;;18.00;15.25;;;;;12.33;65.28;101125.81;5074919;28;45811;-82
2021/10/25 05:52:07;;;;;;;;;17.25;12.75;;;;;12.41;65.53;101136.63;5076547;28;45610;-82
2021/10/25 05:54:34;;;;;;;;;18.00;14.25;;;;;12.36;65.51;101128.25;5076585;28;45880;-80
2021/10/25 05:56:59;;;;;;;;;14.50;13.25;;;;;12.39;65.57;101135.88;5076827;28;45668;-81
2021/10/25 05:59:26;;;;;;;;;22.50;17.25;;;;;12.10;65.86;101088.84;5076490;28;45802;-81
2021/10/25 06:01:57;;;;;;;;;17.25;16.25;;;;;12.32;65.58;101135.47;5075618;28;46528;-81
2021/10/25 06:04:25;;;;;;;;;17.00;16.00;;;;;12.32;65.62;101119.72;5076417;28;45685;-81
2021/10/25 06:06:50;;;;;;;;;19.75;18.00;;;;;12.38;65.64;101132.41;5076304;28;45807;-82
2021/10/25 06:09:16;;;;;;;;;18.25;18.00;;;;;12.37;66.05;101133.34;5057812;28;45719;-81
2021/10/25 06:11:42;;;;;;;;;17.50;13.25;;;;;12.36;66.05;101110.66;5057600;28;46274;-81
2021/10/25 06:14:10;;;;;;;;;16.50;16.25;;;;;12.25;65.88;101096.63;5076213;28;45993;-80
2021/10/25 06:19:57;;;;;;;;;22.00;21.25;;;;;12.35;66.02;101122.13;5076369;28;46032;-76
2021/10/25 06:22:23;;;;;;;;;16.25;15.50;;;;;12.32;65.99;101124.13;5076636;28;46285;-78
2021/10/25 06:24:49;;;;;;;;;19.25;18.50;;;;;12.33;66.19;101134.53;5058053;28;45709;-78
2021/10/25 06:27:16;;;;;;;;;20.25;18.50;;;;;12.33;66.35;101137.16;5077856;28;45717;-77
2021/10/25 06:29:42;;;;;;;;;12.50;11.75;;;;;12.30;66.35;101129.50;5077248;28;46714;-82
2021/10/25 06:32:08;;;;;;;;;17.75;16.50;;;;;12.33;66.16;101137.16;5077032;28;45693;-80
2021/10/25 06:34:44;;;;;;;;;19.50;17.50;;;;;12.39;66.50;101141.16;5075288;28;45555;-80
2021/10/25 06:37:10;;;;;;;;;18.50;16.25;;;;;12.37;66.22;101136.00;5075635;28;45768;-81
2021/10/25 06:39:40;;;;;;;;;18.50;16.75;;;;;12.40;66.32;101148.94;5075604;28;46334;-77
2021/10/25 06:42:06;;;;;;;;;18.25;18.25;;;;;12.41;66.48;101165.53;5075675;28;46979;-76
2021/10/25 06:44:36;;;;;;;;;19.25;17.50;;;;;12.38;66.56;101155.22;5075379;28;45635;-77
2021/10/25 06:50:39;;;;;;;;;21.25;17.00;;;;;12.35;66.56;101160.72;5074206;28;45849;-77
2021/10/25 06:53:06;;;;;;;;;17.50;17.00;;;;;12.39;66.63;101155.13;5075131;28;47088;-80
2021/10/25 06:55:33;;;;;;;;;20.25;18.00;;;;;12.38;66.54;101160.47;5075597;28;45530;-81
2021/10/25 06:57:59;;;;;;;;;21.25;17.50;;;;;12.37;66.71;101167.53;5075909;28;45593;-76
2021/10/25 07:00:24;;;;;;;;;18.00;16.50;;;;;12.31;66.82;101160.06;5075588;28;46555;-76
2021/10/25 07:02:50;;;;;;;;;21.00;18.50;;;;;12.39;66.75;101175.31;5075794;28;46396;-79
2021/10/25 07:05:16;;;;;;;;;15.50;15.50;;;;;12.42;66.86;101180.34;5075552;28;45564;-75
2021/10/25 07:07:41;;;;;;;;;18.50;15.75;;;;;12.40;66.78;101175.22;5075889;28;45684;-82
2021/10/25 07:10:10;;;;;;;;;19.25;17.00;;;;;12.43;67.06;101179.41;5075515;28;46543;-76
2021/10/25 07:12:37;;;;;;;;;18.25;17.25;;;;;12.44;66.96;101187.19;5074527;28;46096;-80
2021/10/25 07:15:04;;;;;;;;;18.00;16.75;;;;;12.46;67.17;101185.28;5073538;28;45818;-81
2021/10/25 07:17:38;;;;;;;;;21.75;19.75;;;;;12.46;67.07;101184.47;5056723;28;45561;-82
2021/10/25 08:11:58;;;;;;;;;17.75;16.75;;;;;12.53;67.79;101225.09;5075437;28;45616;-74
2021/10/25 08:14:30;;;;;;;;;19.00;17.50;;;;;12.50;67.90;101212.19;5075182;28;47749;-80
2021/10/25 08:16:56;;;;;;;;;20.75;18.75;;;;;12.59;68.13;101229.94;5075507;28;46316;-81
2021/10/25 08:19:24;;;;;;;;;19.25;18.00;;;;;12.60;68.12;101226.38;5076763;28;45722;-78
2021/10/25 08:22:02;;;;;;;;;22.00;18.00;;;;;12.56;68.11;101219.66;5076898;28;45558;-77
2021/10/25 08:24:30;;;;;;;;;19.50;18.00;;;;;12.62;68.17;101216.59;5059762;28;45961;-77
2021/10/25 08:26:56;;;;;;;;;17.25;15.50;;;;;12.55;68.20;101205.69;5079420;28;46684;-78
2021/10/25 08:29:23;;;;;;;;;21.25;18.75;;;;;12.65;68.21;101220.78;5080945;28;45804;-81
2021/10/25 08:32:31;;;;;;;;;19.75;17.00;;;;;12.63;68.01;101209.56;5079894;28;45626;-77
2021/10/25 08:35:17;;;;;;;;;17.75;15.25;;;;;12.71;67.98;101210.69;5074217;28;46529;-79
2021/10/25 08:40:01;;;;;;;;;17.25;17.25;;;;;12.76;68.16;101211.22;5078543;28;45520;-83
2021/10/25 08:42:37;;;;;;;;;19.50;19.00;;;;;12.80;68.34;101209.19;5079407;28;45553;-76
2021/10/25 08:45:14;;;;;;;;;17.25;16.00;;;;;12.82;68.11;101207.31;5078641;28;46684;-78
2021/10/25 08:47:44;;;;;;;;;16.75;16.25;;;;;12.83;68.08;101212.47;5077704;28;46327;-79
2021/10/25 08:50:30;;;;;;;;;18.00;17.50;;;;;12.83;68.29;101203.72;5077700;28;45821;-79
2021/10/25 08:52:57;;;;;;;;;18.50;18.00;;;;;12.89;68.56;101208.56;5078015;28;45683;-80
2021/10/25 08:55:24;;;;;;;;;19.75;17.00;;;;;12.88;68.28;101199.00;5078645;28;46479;-82
2021/10/25 08:57:50;;;;;;;;;22.25;18.25;;;;;12.94;68.48;101196.78;5078897;28;46069;-77
2021/10/25 09:00:17;;;;;;;;;18.25;16.75;;;;;12.97;68.74;101203.59;5079179;28;45825;-78
2021/10/25 09:02:56;;;;;;;;;23.50;19.50;;;;;12.98;68.56;101203.47;5080829;28;45514;-76
2021/10/25 09:05:23;;;;;;;;;22.00;21.00;;;;;13.00;68.81;101206.00;5081028;28;47415;-79
2021/10/25 09:07:55;;;;;;;;;22.00;19.75;;;;;12.98;68.46;101197.38;5077577;28;46369;-80
2021/10/25 09:10:23;;;;;;;;;20.75;19.25;;;;;13.01;68.41;101182.22;5077415;28;45689;-81
2021/10/25 09:12:53;;;;;;;;;20.25;18.75;;;;;13.08;68.85;101190.50;5077772;28;45544;-80
2021/10/25 09:15:19;;;;;;;;;21.00;19.50;;;;;13.11;68.50;101171.88;5078122;28;46495;-81
2021/10/25 09:17:44;;;;;;;;;30.00;26.00;;;;;13.17;68.51;101186.41;5077358;28;45887;-80
2021/10/25 09:20:10;;;;;;;;;24.00;23.00;;;;;13.21;68.61;101178.19;5077379;28;45644;-79
2021/10/25 09:22:35;;;;;;;;;21.75;19.00;;;;;13.21;68.99;101167.66;5077211;28;45526;-78
2021/10/25 09:25:01;;;;;;;;;20.75;19.50;;;;;13.26;68.89;101172.56;5077080;28;46363;-79
2021/10/25 09:27:35;;;;;;;;;23.00;20.00;;;;;13.31;69.25;101175.72;5058662;28;46512;-81
2021/10/25 09:30:11;;;;;;;;;22.75;21.75;;;;;13.34;68.81;101184.22;5069585;28;45803;-79
2021/10/25 09:32:39;;;;;;;;;21.50;18.25;;;;;13.37;69.20;101186.63;5058874;28;45658;-77
2021/10/25 09:35:16;;;;;;;;;29.25;20.00;;;;;13.40;69.03;101181.13;5076125;28;47433;-75
2021/10/25 09:37:48;;;;;;;;;21.50;19.50;;;;;13.43;69.24;101186.19;5076656;28;46025;-76
2021/10/25 09:49:33;;;;;;;;;24.00;20.00;;;;;13.61;69.11;101175.22;4993909;28;45660;-78
2021/10/25 09:52:01;;;;;;;;;26.00;21.25;;;;;13.66;68.81;101178.34;4993848;28;45976;-79
2021/10/25 09:54:28;;;;;;;;;20.00;19.00;;;;;13.75;69.17;101188.22;4994491;28;45803;-81
2021/10/25 09:57:10;;;;;;;;;26.25;21.75;;;;;13.78;68.96;101194.09;4994294;28;46240;-79
2021/10/25 09:59:50;;;;;;;;;22.75;20.75;;;;;13.79;69.36;101185.22;4994590;28;46522;-76
2021/10/25 10:05:38;;;;;;;;;22.75;22.50;;;;;13.93;69.46;101186.81;4994306;28;45663;-76
2021/10/25 10:08:05;;;;;;;;;27.00;23.75;;;;;13.96;69.00;101186.59;4994061;28;46635;-81
2021/10/25 10:10:31;;;;;;;;;22.75;19.50;;;;;14.01;69.68;101188.88;4994507;28;45622;-75
2021/10/25 10:12:57;;;;;;;;;24.75;24.00;;;;;14.06;69.42;101189.38;4994782;28;45676;-78
2021/10/25 10:15:25;;;;;;;;;28.25;21.25;;;;;14.11;69.15;101187.22;4997930;28;45606;-77
2021/10/25 10:21:14;;;;;;;;;23.75;20.50;;;;;14.18;69.53;101193.69;5070382;28;46037;-75
2021/10/25 10:23:44;;;;;;;;;22.75;21.00;;;;;14.21;69.03;101185.53;5082524;28;45643;-78
2021/10/25 10:26:15;;;;;;;;;23.75;22.75;;;;;14.26;69.15;101188.66;5080875;28;45510;-78
2021/10/25 10:28:52;;;;;;;;;20.50;18.75;;;;;14.30;69.18;101193.56;5080539;28;46190;-76
2021/10/25 10:31:19;;;;;;;;;26.50;25.50;;;;;14.35;69.13;101192.41;5079751;28;46139;-80
2021/10/25 10:33:51;;;;;;;;;22.25;21.00;;;;;14.37;69.45;101203.69;5078863;28;45577;-79
2021/10/25 10:36:17;;;;;;;;;26.50;24.00;;;;;14.40;69.44;101212.22;5076389;28;45978;-76
2021/10/25 10:38:48;;;;;;;;;26.50;24.00;;;;;14.43;69.47;101206.69;5075972;28;47308;-79
2021/10/25 10:41:15;;;;;;;;;25.50;23.25;;;;;14.44;69.64;101210.16;5075912;28;47132;-75
2021/10/25 10:43:40;;;;;;;;;21.50;20.75;;;;;14.43;69.48;101208.47;5076404;28;45727;-79
2021/10/25 10:46:13;;;;;;;;;20.00;19.25;;;;;14.47;69.27;101223.94;5076431;28;45883;-79
2021/10/25 10:48:39;;;;;;;;;19.50;18.25;;;;;14.44;69.75;101212.81;5075919;28;46416;-78
2021/10/25 10:51:11;;;;;;;;;18.75;18.00;;;;;14.46;69.47;101218.81;5075484;28;46383;-76
2021/10/25 10:53:49;;;;;;;;;20.50;17.00;;;;;14.45;69.84;101217.97;5075167;28;45513;-77
2021/10/25 10:56:22;;;;;;;;;19.75;17.50;;;;;14.45;69.94;101217.97;5075669;28;45894;-75
2021/10/25 10:59:04;;;;;;;;;19.75;16.75;;;;;14.40;70.22;101217.50;5057053;28;47389;-80
2021/10/25 11:01:30;;;;;;;;;17.50;16.50;;;;;14.41;70.38;101219.16;5057276;28;46112;-79
2021/10/25 11:04:04;;;;;;;;;14.25;14.25;;;;;14.42;69.99;101228.72;5056981;28;45576;-76
2021/10/25 11:06:34;;;;;;;;;15.25;15.25;;;;;14.38;70.18;101222.03;5075498;28;45528;-77
2021/10/25 11:09:11;;;;;;;;;16.75;15.25;;;;;14.31;71.21;101215.50;5075505;28;46461;-77
2021/10/25 11:11:39;;;;;;;;;13.25;12.25;;;;;14.33;70.77;101233.84;5041106;28;46266;-78
2021/10/25 11:14:07;;;;;;;;;14.25;12.75;;;;;14.28;70.65;101237.69;5074962;28;45533;-79
2021/10/25 11:19:03;;;;;;;;;12.50;11.75;;;;;14.21;71.10;101230.34;5074815;28;45646;-80
2021/10/25 11:21:33;;;;;;;;;13.75;12.25;;;;;14.20;70.95;101218.97;5066297;28;46448;-79
2021/10/25 11:24:08;;;;;;;;;16.50;13.75;;;;;14.15;71.10;101207.09;5074531;28;45568;-75
2021/10/25 11:26:52;;;;;;;;;12.75;11.25;;;;;14.19;70.71;101200.66;5074896;28;45545;-78
2021/10/25 11:29:26;;;;;;;;;13.00;12.50;;;;;14.27;70.91;101209.63;5075146;28;46597;-80
2021/10/25 11:32:00;;;;;;;;;13.75;12.00;;;;;14.28;70.82;101198.16;5074905;28;45905;-81
2021/10/25 11:34:35;;;;;;;;;11.25;11.00;;;;;14.33;70.98;101202.22;5075081;28;45787;-80
2021/10/25 11:37:09;;;;;;;;;14.00;13.00;;;;;14.37;71.04;101198.41;5074786;28;45534;-80
2021/10/25 11:39:52;;;;;;;;;13.50;13.00;;;;;14.42;70.80;101201.53;5075233;28;47262;-78
2021/10/25 11:42:21;;;;;;;;;15.25;12.75;;;;;14.46;70.60;101201.19;5075018;28;46718;-79
2021/10/25 11:44:50;;;;;;;;;13.75;13.00;;;;;14.51;70.74;101195.56;5074568;28;45650;-80
2021/10/25 11:47:17;;;;;;;;;13.50;12.00;;;;;14.55;70.70;101202.25;5074869;28;45910;-75
2021/10/25 11:49:43;;;;;;;;;14.50;13.00;;;;;14.57;70.94;101190.66;5074897;28;46430;-77
2021/10/25 11:52:09;;;;;;;;;12.25;10.75;;;;;14.62;70.67;101206.09;5069165;28;46050;-79
2021/10/25 11:54:50;;;;;;;;;11.75;10.25;;;;;14.64;70.89;101197.09;5072475;28;45725;-80
2021/10/25 11:57:18;;;;;;;;;14.25;13.00;;;;;14.68;70.63;101201.16;5075247;28;45578;-77
2021/10/25 11:59:54;;;;;;;;;11.00;10.00;;;;;14.68;70.82;101189.81;5074344;28;47426;-79
2021/10/25 12:02:23;;;;;;;;;12.50;10.00;;;;;14.70;71.12;101194.00;5074543;28;46326;-80
2021/10/25 12:04:50;;;;;;;;;11.50;10.50;;;;;14.78;70.85;101198.66;5056634;28;45704;-80
2021/10/25 12:07:17;;;;;;;;;10.50;10.00;;;;;14.76;70.71;101192.66;5074959;28;45933;-81
2021/10/25 12:09:42;;;;;;;;;11.25;10.25;;;;;14.85;70.87;101196.34;5074611;28;47463;-81
2021/10/25 12:12:15;;;;;;;;;11.25;9.50;;;;;14.89;70.46;101196.03;5074715;28;46259;-81
2021/10/25 12:14:44;;;;;;;;;12.50;10.25;;;;;14.94;70.78;101195.66;5074589;28;45688;-80
2021/10/25 12:17:14;;;;;;;;;18.00;11.75;;;;;15.02;70.81;101195.84;5075082;28;45707;-79
2021/10/25 12:19:45;;;;;;;;;13.25;11.75;;;;;15.08;70.66;101198.84;5074497;28;47427;-80
2021/10/25 12:22:19;;;;;;;;;15.75;13.50;;;;;15.15;70.39;101188.63;5074425;28;45974;-78
2021/10/25 12:24:49;;;;;;;;;16.00;11.50;;;;;15.21;70.51;101188.16;5074306;28;45612;-77
2021/10/25 12:27:17;;;;;;;;;12.75;10.50;;;;;15.21;70.52;101176.75;5074570;28;45510;-78
2021/10/25 12:29:44;;;;;;;;;10.25;8.00;;;;;15.33;70.43;101173.13;5074084;28;47438;-81
2021/10/25 12:32:12;;;;;;;;;10.75;10.50;;;;;15.35;70.29;101174.66;5074003;28;45664;-80
2021/10/25 12:34:49;;;;;;;;;12.00;10.50;;;;;15.42;70.30;101165.28;5074495;28;45840;-78
2021/10/25 12:37:25;;;;;;;;;11.50;11.50;;;;;15.41;70.08;101149.53;5076097;28;45644;-81
2021/10/25 12:39:55;;;;;;;;;10.00;10.00;;;;;15.48;70.37;101153.38;5074187;28;46654;-79
2021/10/25 12:42:21;;;;;;;;;12.00;9.25;;;;;15.57;70.11;101152.63;5074057;28;46464;-80
2021/10/25 12:44:51;;;;;;;;;11.00;10.75;;;;;15.60;70.16;101152.34;5074252;28;45755;-80
2021/10/25 12:47:21;;;;;;;;;11.00;10.00;;;;;15.64;70.02;101148.50;5074223;28;45627;-79
2021/10/25 12:49:56;;;;;;;;;11.25;11.00;;;;;15.75;69.80;101159.03;5073857;28;46372;-78
2021/10/25 12:52:26;;;;;;;;;12.25;11.25;;;;;15.82;69.76;101161.97;5074202;28;46168;-81
2021/10/25 12:54:58;;;;;;;;;11.75;11.00;;;;;15.82;69.95;101157.50;5074264;28;45718;-79
2021/10/25 12:57:31;;;;;;;;;8.25;8.00;;;;;15.90;69.81;101165.66;5074264;28;45557;-79
2021/10/25 13:00:09;;;;;;;;;11.25;10.00;;;;;15.95;69.51;101167.91;5074424;28;45952;-80
2021/10/25 13:02:41;;;;;;;;;11.50;11.25;;;;;15.98;69.51;101157.06;5075136;28;46453;-81
2021/10/25 13:05:16;;;;;;;;;10.75;10.25;;;;;16.01;69.56;101155.97;5079847;28;45498;-79
2021/10/25 13:07:47;;;;;;;;;10.50;9.50;;;;;16.08;69.48;101157.97;5079599;28;45537;-79
2021/10/25 13:10:13;;;;;;;;;11.00;9.25;;;;;16.12;69.46;101155.91;5079136;28;46306;-79
2021/10/25 13:12:39;;;;;;;;;12.00;10.50;;;;;16.16;69.42;101152.84;5083364;28;46149;-81
2021/10/25 13:15:05;;;;;;;;;11.50;10.00;;;;;16.17;69.26;101156.34;5083673;28;45550;-74
2021/10/25 13:17:30;;;;;;;;;10.00;8.75;;;;;16.20;69.04;101148.97;5082927;28;45471;-78
2021/10/25 13:19:56;;;;;;;;;10.75;10.00;;;;;16.21;68.93;101147.16;5078816;28;45844;-80
2021/10/25 13:22:22;;;;;;;;;10.00;9.00;;;;;16.13;69.24;101128.50;5077305;28;46086;-76
2021/10/25 13:24:47;;;;;;;;;12.00;10.50;;;;;16.20;68.97;101137.56;5077643;28;45509;-78
2021/10/25 13:27:13;;;;;;;;;10.25;8.50;;;;;16.26;68.81;101144.97;5077616;28;45534;-80
2021/10/25 13:29:38;;;;;;;;;10.75;8.75;;;;;16.27;68.67;101146.66;5077124;28;45568;-81
2021/10/25 13:32:04;;;;;;;;;9.00;8.25;;;;;16.29;68.67;101150.84;5077288;28;45700;-78
2021/10/25 13:34:30;;;;;;;;;11.50;9.00;;;;;16.25;68.78;101140.63;5077501;28;45743;-80
2021/10/25 13:36:55;;;;;;;;;10.50;8.50;;;;;16.34;68.57;101145.16;5077657;28;45499;-81